createdAt,value
2017-01-13T00:04:05.209Z,974.6
2017-01-13T00:14:19.462Z,974.4
2017-01-13T00:24:34.100Z,974.1
2017-01-13T00:34:47.688Z,973.9
2017-01-13T00:45:01.825Z,973.7
2017-01-13T00:55:14.866Z,973.5
2017-01-13T01:05:29.612Z,973.4
2017-01-13T01:15:43.399Z,973.1
2017-01-13T01:25:57.140Z,972.7
2017-01-13T01:36:11.609Z,972.7
2017-01-13T01:46:24.649Z,972.8
2017-01-13T01:56:39.201Z,972.8
2017-01-13T02:06:52.573Z,972.8
2017-01-13T02:17:07.324Z,972.9
2017-01-13T02:27:20.463Z,973
2017-01-13T02:37:35.149Z,973
2017-01-13T02:47:49.216Z,973
2017-01-13T02:58:02.687Z,973.1
2017-01-13T03:08:16.011Z,973.4
2017-01-13T03:18:30.694Z,973.8
2017-01-13T03:28:45.398Z,974.3
2017-01-13T03:38:59.233Z,974.9
2017-01-13T03:49:13.211Z,975.4
2017-01-13T03:59:28.067Z,975.8
2017-01-13T04:09:42.915Z,976.5
2017-01-13T04:19:55.927Z,977
2017-01-13T04:30:10.868Z,977.6
2017-01-13T04:40:25.551Z,978.3
2017-01-13T04:50:39.613Z,978.8
2017-01-13T05:00:53.833Z,979.3
2017-01-13T05:11:07.981Z,979.9
2017-01-13T05:21:21.917Z,980.4
2017-01-13T05:31:35.092Z,981.1
2017-01-13T05:41:48.349Z,981.8
2017-01-13T05:52:02.600Z,982.5
2017-01-13T06:02:17.421Z,983.1
2017-01-13T06:12:31.112Z,983.7
2017-01-13T06:22:45.266Z,984.2
2017-01-13T06:32:59.784Z,984.7
2017-01-13T06:43:12.988Z,985.2
2017-01-13T06:53:27.761Z,985.7
2017-01-13T07:03:41.488Z,986.1
2017-01-13T07:13:55.045Z,986.6
2017-01-13T07:24:08.412Z,986.9
2017-01-13T07:34:23.220Z,987.4
2017-01-13T07:44:37.698Z,987.7
2017-01-13T07:54:51.628Z,987.9
2017-01-13T08:05:05.594Z,988.2
2017-01-13T08:15:19.052Z,988.5
2017-01-13T08:25:34.079Z,988.7
2017-01-13T08:35:49.028Z,989
2017-01-13T08:46:03.034Z,989.2
2017-01-13T08:56:17.236Z,989.4
2017-01-13T09:06:30.407Z,989.6
2017-01-13T09:16:45.502Z,989.9
2017-01-13T09:26:59.189Z,990.3
2017-01-13T09:37:14.054Z,990.6
2017-01-13T09:47:28.231Z,990.8
2017-01-13T09:57:41.842Z,991
2017-01-13T10:07:55.827Z,991.2
2017-01-13T10:18:09.822Z,991.5
2017-01-13T10:28:24.781Z,991.5
2017-01-13T10:38:39.104Z,991.7
2017-01-13T10:48:52.577Z,991.8
2017-01-13T10:59:06.193Z,991.9
2017-01-13T11:09:19.687Z,991.9
2017-01-13T11:19:34.021Z,992
2017-01-13T11:29:47.707Z,992
2017-01-13T11:40:01.906Z,992.5
2017-01-13T11:50:16.268Z,992.4
2017-01-13T12:00:29.092Z,992.5
2017-01-13T12:10:42.449Z,992.5
2017-01-13T12:20:56.409Z,992.5
2017-01-13T12:31:10.620Z,992.5
2017-01-13T12:41:24.741Z,992.6
2017-01-13T12:51:38.925Z,992.5
2017-01-13T13:01:53.151Z,992.6
2017-01-13T13:12:06.477Z,992.5
2017-01-13T13:22:20.256Z,992.7
2017-01-13T13:32:34.664Z,992.7
2017-01-13T13:42:47.890Z,992.7
2017-01-13T13:53:02.182Z,992.9
2017-01-13T14:03:15.852Z,992.8
2017-01-13T14:13:30.208Z,992.9
2017-01-13T14:23:45.089Z,993.2
2017-01-13T14:33:58.715Z,993.2
2017-01-13T14:44:13.110Z,993.2
2017-01-13T14:54:26.895Z,993.2
2017-01-13T15:04:41.728Z,993.2
2017-01-13T15:14:54.723Z,993.2
2017-01-13T15:25:07.967Z,993.2
2017-01-13T15:35:21.826Z,993.2
2017-01-13T15:45:37.001Z,993.3
2017-01-13T15:55:51.338Z,993.3
2017-01-13T16:06:05.434Z,993.2
2017-01-13T16:16:19.113Z,993.1
2017-01-13T16:26:32.812Z,993.1
2017-01-13T16:36:46.590Z,993
2017-01-13T16:47:00.341Z,993
2017-01-13T16:57:14.471Z,992.8
2017-01-13T17:07:28.390Z,992.7
2017-01-13T17:17:43.230Z,992.8
2017-01-13T17:27:57.532Z,992.6
2017-01-13T17:38:10.893Z,992.5
2017-01-13T17:48:25.754Z,992.5
2017-01-13T17:58:39.215Z,992.4
2017-01-13T18:08:53.568Z,992.5
2017-01-13T18:19:06.949Z,992.4
2017-01-13T18:29:21.768Z,992.3
2017-01-13T18:39:36.668Z,992.4
2017-01-13T18:49:49.844Z,992.4
2017-01-13T19:00:04.306Z,992.2
2017-01-13T19:10:18.437Z,992.2
2017-01-13T19:20:31.701Z,992.2
2017-01-13T19:30:45.433Z,992
2017-01-13T19:40:59.546Z,992.1
2017-01-13T19:51:12.615Z,991.8
2017-01-13T20:01:26.052Z,991.8
2017-01-13T20:11:39.451Z,991.9
2017-01-13T20:21:53.243Z,992
2017-01-13T20:32:07.871Z,992
2017-01-13T20:42:22.353Z,992.1
2017-01-13T20:52:37.089Z,992
2017-01-13T21:02:50.991Z,991.9
2017-01-13T21:13:05.610Z,992.1
2017-01-13T21:23:18.709Z,992.1
2017-01-13T21:33:31.897Z,992.2
2017-01-13T21:43:45.800Z,992.3
2017-01-13T21:53:59.322Z,992.3
2017-01-13T22:04:12.739Z,992.6
2017-01-13T22:14:27.551Z,992.6
2017-01-13T22:24:42.320Z,992.7
2017-01-13T22:34:56.391Z,992.8
2017-01-13T22:45:11.502Z,993
2017-01-13T22:55:25.534Z,992.9
2017-01-13T23:05:39.856Z,993
2017-01-13T23:15:53.947Z,993.1
2017-01-13T23:26:07.534Z,993.1
2017-01-13T23:36:22.096Z,993.2
2017-01-13T23:46:35.839Z,993.4
2017-01-13T23:56:48.896Z,993.8
